Time;durP1;ratioP1;P1;durP2;ratioP2;P2;SDS_P1;SDS_P2;PMS_P1;PMS_P2;Temp;Humidity;BMP_temperature;BMP_pressure;BME280_temperature;BME280_humidity;BME280_pressure;Samples;Min_cycle;Max_cycle;Signal;HPM_P1;HPM_P2
2023/05/13 00:01:04;;;;;;;7.18;5.72;;;;;;;12.45;100.00;163818.97;5067864;28;20049;-60
2023/05/13 00:03:29;;;;;;;13.35;6.57;;;;;;;12.35;100.00;163794.63;5052732;28;20043;-60
2023/05/13 00:05:55;;;;;;;7.93;5.72;;;;;;;12.22;100.00;163759.50;5055023;28;20029;-60
2023/05/13 00:08:20;;;;;;;7.20;5.78;;;;;;;12.00;100.00;163702.75;5072698;28;20028;-60
2023/05/13 00:10:46;;;;;;;9.27;6.00;;;;;;;11.93;100.00;163682.41;5070922;28;20062;-60
2023/05/13 00:13:11;;;;;;;12.77;6.32;;;;;;;11.93;100.00;163682.41;5072644;28;20032;-61
2023/05/13 00:15:36;;;;;;;10.75;6.85;;;;;;;11.74;100.00;163633.81;5069482;28;20491;-60
2023/05/13 00:18:02;;;;;;;7.43;6.72;;;;;;;11.64;100.00;163606.78;5052351;28;20127;-60
2023/05/13 00:20:27;;;;;;;7.88;6.10;;;;;;;11.55;100.00;163585.16;5054387;28;20040;-59
2023/05/13 00:22:53;;;;;;;10.68;7.30;;;;;;;11.43;100.00;163554.09;5072136;28;20033;-60
2023/05/13 00:25:18;;;;;;;8.13;7.35;;;;;;;11.34;100.00;163529.84;5071088;28;20045;-60
2023/05/13 00:27:43;;;;;;;10.45;7.32;;;;;;;11.25;100.00;163505.50;5053653;28;20033;-60
2023/05/13 00:30:09;;;;;;;8.80;7.93;;;;;;;11.19;100.00;163489.31;5050636;28;20051;-60
2023/05/13 00:32:34;;;;;;;29.67;8.43;;;;;;;11.09;100.00;163465.00;5051770;28;20471;-60
2023/05/13 00:35:00;;;;;;;7.95;7.13;;;;;;;11.00;100.00;163440.69;5050659;28;20462;-60
2023/05/13 00:37:26;;;;;;;11.70;8.20;;;;;;;10.95;100.00;163427.19;5066681;28;20024;-60
2023/05/13 00:39:51;;;;;;;11.55;7.50;;;;;;;10.89;100.00;163411.00;5070685;28;20101;-60
2023/05/13 00:42:16;;;;;;;9.77;8.05;;;;;;;10.85;100.00;163400.19;5072176;28;20422;-60
2023/05/13 00:44:41;;;;;;;8.48;7.72;;;;;;;10.77;100.00;163381.28;5069944;28;20049;-60
2023/05/13 00:47:10;;;;;;;12.52;8.48;;;;;;;10.78;100.00;163384.00;5056844;28;20036;-60
2023/05/13 00:49:35;;;;;;;12.05;7.82;;;;;;;10.85;100.00;163401.56;5050244;28;20533;-60
2023/05/13 00:52:01;;;;;;;24.70;9.02;;;;;;;10.92;100.00;163419.06;5051598;28;20029;-61
2023/05/13 00:54:27;;;;;;;13.18;8.10;;;;;;;10.99;100.00;163437.97;5050170;28;20490;-61
2023/05/13 00:56:55;;;;;;;13.60;9.90;;;;;;;11.02;100.00;163444.78;5061921;28;20036;-61
2023/05/13 00:59:22;;;;;;;16.60;8.57;;;;;;;11.02;100.00;163446.09;5070075;28;20079;-61
2023/05/13 01:02:25;;;;;;;21.20;9.95;;;;;;;11.02;100.00;163446.09;5056544;28;20072;-60
2023/05/13 01:05:18;;;;;;;11.73;10.13;;;;;;;11.00;100.00;163440.69;5048660;28;20411;-61
2023/05/13 01:08:20;;;;;;;14.07;9.30;;;;;;;10.98;100.00;163435.31;5067684;28;20099;-61
2023/05/13 01:10:48;;;;;;;16.55;9.27;;;;;;;10.97;100.00;163432.63;5068831;28;20129;-61
2023/05/13 01:13:19;;;;;;;11.50;9.63;;;;;;;10.94;100.00;163424.50;5051615;28;20102;-61
2023/05/13 01:15:48;;;;;;;9.98;8.98;;;;;;;10.86;100.00;163404.25;5050501;28;20125;-62
2023/05/13 01:18:22;;;;;;;9.48;8.57;;;;;;;10.78;100.00;163382.66;5060336;28;20100;-61
2023/05/13 01:20:47;;;;;;;12.23;9.05;;;;;;;10.66;100.00;163351.59;5067502;28;20044;-59
2023/05/13 01:23:12;;;;;;;11.30;8.77;;;;;;;10.56;100.00;163325.97;5050958;28;20017;-59
2023/05/13 01:25:39;;;;;;;12.52;9.90;;;;;;;10.48;100.00;163304.38;5067424;28;20448;-58
2023/05/13 01:28:05;;;;;;;11.68;10.68;;;;;;;10.42;100.00;163289.50;5071191;28;20028;-59
2023/05/13 01:30:31;;;;;;;11.40;10.23;;;;;;;10.29;100.00;163254.38;5069218;28;20170;-58
2023/05/13 01:32:57;;;;;;;14.85;11.52;;;;;;;10.28;100.00;163251.66;5070565;28;20037;-58
2023/05/13 01:35:24;;;;;;;16.38;10.40;;;;;;;10.24;100.00;163240.91;5069479;28;20068;-58
2023/05/13 01:37:50;;;;;;;13.45;11.57;;;;;;;10.21;100.00;163232.78;5070455;28;20549;-58
2023/05/13 01:40:15;;;;;;;12.60;11.35;;;;;;;10.19;100.00;163227.38;5069655;28;20043;-57
2023/05/13 01:42:41;;;;;;;12.75;11.50;;;;;;;10.11;100.00;163208.47;5054354;28;20108;-58
2023/05/13 01:45:07;;;;;;;11.40;10.20;;;;;;;10.06;100.00;163195.00;5062713;28;20040;-58
2023/05/13 01:47:33;;;;;;;14.45;10.73;;;;;;;10.05;100.00;163192.28;5069980;28;20029;-58
2023/05/13 01:49:58;;;;;;;12.70;11.50;;;;;;;10.01;100.00;163181.53;5069331;28;20601;-58
2023/05/13 01:52:23;;;;;;;17.05;11.93;;;;;;;9.83;100.00;163135.63;5070094;28;20104;-58
2023/05/13 01:54:49;;;;;;;14.63;13.23;;;;;;;9.95;100.00;163165.28;5069485;28;20032;-58
2023/05/13 01:57:14;;;;;;;11.52;10.40;;;;;;;9.94;100.00;163163.97;5070935;28;20025;-58
2023/05/13 01:59:40;;;;;;;13.02;11.73;;;;;;;9.94;100.00;163162.63;5068328;28;20048;-58
2023/05/13 02:02:05;;;;;;;27.60;13.65;;;;;;;9.93;100.00;163159.94;5059769;28;20045;-58
2023/05/13 02:04:30;;;;;;;16.05;12.30;;;;;;;9.89;100.00;163149.09;5057533;28;20040;-57
2023/05/13 02:06:56;;;;;;;13.82;11.98;;;;;;;9.88;100.00;163146.41;5070191;28;20024;-57
2023/05/13 02:09:21;;;;;;;14.30;12.90;;;;;;;9.85;100.00;163139.66;5069307;28;20048;-58
2023/05/13 02:11:47;;;;;;;12.80;11.52;;;;;;;9.83;100.00;163135.63;5069261;28;20080;-57
2023/05/13 02:14:12;;;;;;;15.57;13.73;;;;;;;9.81;100.00;163130.22;5068906;28;20653;-58
2023/05/13 02:16:38;;;;;;;17.23;15.43;;;;;;;9.81;100.00;163130.22;5069935;28;20040;-58
2023/05/13 02:19:03;;;;;;;19.17;16.27;;;;;;;9.81;100.00;163130.22;5069281;28;20033;-58
2023/05/13 02:21:29;;;;;;;19.77;13.38;;;;;;;9.87;100.00;163145.06;5070217;28;20029;-58
2023/05/13 02:23:54;;;;;;;18.17;15.02;;;;;;;9.91;100.00;163154.50;5069330;28;20403;-58
2023/05/13 02:26:19;;;;;;;15.45;13.95;;;;;;;9.86;100.00;163142.38;5065788;28;20506;-58
2023/05/13 02:28:45;;;;;;;15.77;13.88;;;;;;;9.91;100.00;163154.50;5049459;28;20028;-58
2023/05/13 02:31:10;;;;;;;15.43;13.80;;;;;;;9.90;100.00;163151.81;5054471;28;20087;-58
2023/05/13 02:33:35;;;;;;;18.33;13.98;;;;;;;9.87;100.00;163145.06;5052918;28;20020;-59
2023/05/13 02:36:01;;;;;;;16.65;14.80;;;;;;;9.86;100.00;163141.03;5055573;28;20476;-59
2023/05/13 02:38:26;;;;;;;28.55;16.08;;;;;;;9.86;100.00;163142.38;5065900;28;20125;-58
2023/05/13 02:40:52;;;;;;;18.45;15.02;;;;;;;9.88;100.00;163146.41;5072722;28;20040;-58
2023/05/13 02:43:18;;;;;;;15.48;13.82;;;;;;;9.93;100.00;163159.94;5073689;28;20040;-58
2023/05/13 02:45:46;;;;;;;15.45;14.05;;;;;;;9.98;100.00;163173.41;5058516;28;20515;-57
2023/05/13 02:48:11;;;;;;;16.88;15.07;;;;;;;10.03;100.00;163185.56;5034498;28;20025;-57
2023/05/13 02:50:36;;;;;;;16.20;14.38;;;;;;;10.05;100.00;163192.28;5049754;28;20043;-58
2023/05/13 02:53:02;;;;;;;16.75;13.70;;;;;;;10.06;100.00;163193.63;5054494;28;20029;-58
2023/05/13 02:55:27;;;;;;;15.25;13.15;;;;;;;10.05;100.00;163192.28;5053394;28;20040;-58
2023/05/13 02:57:52;;;;;;;17.52;14.73;;;;;;;10.04;100.00;163189.59;5073541;28;20029;-58
2023/05/13 03:00:18;;;;;;;22.00;15.07;;;;;;;10.03;100.00;163186.88;5072332;28;20048;-58
2023/05/13 03:02:43;;;;;;;14.65;13.18;;;;;;;9.97;100.00;163170.69;5073943;28;20387;-58
2023/05/13 03:05:08;;;;;;;21.48;15.50;;;;;;;9.88;100.00;163146.41;5071928;28;20130;-58
2023/05/13 03:07:34;;;;;;;19.38;14.52;;;;;;;9.91;100.00;163155.84;5073292;28;20020;-58
2023/05/13 03:09:59;;;;;;;16.48;14.77;;;;;;;9.89;100.00;163149.09;5072473;28;20044;-58
2023/05/13 03:12:25;;;;;;;16.52;13.57;;;;;;;9.83;100.00;163135.63;5073002;28;20107;-58
2023/05/13 03:14:50;;;;;;;15.60;14.10;;;;;;;9.81;100.00;163130.22;5072063;28;20506;-58
2023/05/13 03:17:15;;;;;;;16.35;14.20;;;;;;;9.73;100.00;163108.63;5073224;28;20051;-59
2023/05/13 03:19:41;;;;;;;17.27;14.50;;;;;;;9.64;100.00;163084.38;5071807;28;20045;-59
2023/05/13 03:22:06;;;;;;;16.25;14.52;;;;;;;9.62;100.00;163078.97;5073849;28;20403;-58
2023/05/13 03:24:32;;;;;;;15.45;13.95;;;;;;;9.60;100.00;163073.56;5072029;28;20044;-58
2023/05/13 03:26:57;;;;;;;15.48;13.98;;;;;;;9.60;100.00;163073.56;5072789;28;20399;-58
2023/05/13 03:29:22;;;;;;;18.25;16.15;;;;;;;9.61;100.00;163076.28;5069055;28;20098;-57
2023/05/13 03:31:48;;;;;;;15.55;13.98;;;;;;;9.59;100.00;163070.84;5053266;28;20032;-57
2023/05/13 03:34:14;;;;;;;16.50;13.93;;;;;;;9.52;100.00;163054.69;5051942;28;20063;-58
2023/05/13 03:36:39;;;;;;;16.70;14.88;;;;;;;9.47;100.00;163041.22;5063494;28;20432;-59
2023/05/13 03:39:05;;;;;;;17.95;16.05;;;;;;;9.42;100.00;163026.34;5070947;28;20052;-59
2023/05/13 03:41:30;;;;;;;19.65;15.65;;;;;;;9.39;100.00;163018.25;5072406;28;20048;-58
2023/05/13 03:43:55;;;;;;;18.70;16.45;;;;;;;9.40;100.00;163022.31;5071508;28;20052;-59
2023/05/13 03:46:22;;;;;;;16.58;14.75;;;;;;;9.41;100.00;163025.03;5061644;28;20033;-59
2023/05/13 03:48:48;;;;;;;20.17;16.48;;;;;;;9.45;100.00;163035.81;5054046;28;20075;-58
2023/05/13 03:51:13;;;;;;;16.77;15.20;;;;;;;9.46;100.00;163038.50;5072368;28;20559;-59
2023/05/13 03:53:38;;;;;;;18.13;16.38;;;;;;;9.48;100.00;163042.53;5071266;28;20031;-59
2023/05/13 03:56:04;;;;;;;18.30;16.40;;;;;;;9.43;100.00;163030.38;5072655;28;20470;-59
2023/05/13 03:58:29;;;;;;;18.75;16.95;;;;;;;9.46;100.00;163038.50;5072456;28;20107;-59
2023/05/13 04:00:55;;;;;;;19.50;15.77;;;;;;;9.43;100.00;163030.38;5070906;28;20816;-59
2023/05/13 04:03:21;;;;;;;18.85;16.88;;;;;;;9.44;100.00;163031.75;5072895;28;20021;-59
2023/05/13 04:05:47;;;;;;;16.85;15.25;;;;;;;9.43;100.00;163030.38;5070575;28;20097;-59
2023/05/13 04:08:12;;;;;;;18.23;16.00;;;;;;;9.39;100.00;163019.63;5072366;28;20029;-59
2023/05/13 04:10:38;;;;;;;16.92;15.25;;;;;;;9.46;100.00;163038.50;5071035;28;20036;-59
2023/05/13 04:13:03;;;;;;;18.55;15.52;;;;;;;9.50;100.00;163049.28;5071513;28;20056;-58
2023/05/13 04:15:30;;;;;;;19.08;16.77;;;;;;;9.57;100.00;163065.50;5069256;28;20033;-58
2023/05/13 04:17:56;;;;;;;17.55;15.82;;;;;;;9.62;100.00;163078.97;5072361;28;20382;-58
2023/05/13 04:20:21;;;;;;;22.17;15.63;;;;;;;9.65;100.00;163088.41;5070576;28;20041;-58
2023/05/13 04:22:47;;;;;;;19.77;17.23;;;;;;;9.67;100.00;163092.44;5071639;28;20086;-58
2023/05/13 04:25:12;;;;;;;19.92;15.68;;;;;;;9.72;100.00;163104.59;5070031;28;20072;-57
2023/05/13 04:27:37;;;;;;;16.88;15.18;;;;;;;9.76;100.00;163116.75;5070990;28;20041;-58
2023/05/13 04:30:03;;;;;;;17.48;15.73;;;;;;;9.78;100.00;163122.16;5060729;28;20040;-58
2023/05/13 04:32:29;;;;;;;19.73;17.70;;;;;;;9.81;100.00;163130.22;5052004;28;20024;-58
2023/05/13 04:34:54;;;;;;;24.88;17.25;;;;;;;9.82;100.00;163132.94;5062148;28;20040;-57
2023/05/13 04:37:19;;;;;;;16.05;14.20;;;;;;;9.88;100.00;163146.41;5052911;28;20027;-57
2023/05/13 04:39:45;;;;;;;17.85;16.15;;;;;;;9.89;100.00;163149.09;5064051;28;20044;-57
2023/05/13 04:42:11;;;;;;;17.30;15.52;;;;;;;9.93;100.00;163159.94;5072014;28;20020;-57
2023/05/13 04:44:37;;;;;;;23.42;17.88;;;;;;;9.97;100.00;163170.69;5066046;28;20044;-57
2023/05/13 04:47:02;;;;;;;22.27;17.17;;;;;;;10.01;100.00;163181.53;5071647;28;20089;-58
2023/05/13 04:49:28;;;;;;;17.92;15.02;;;;;;;10.03;100.00;163186.88;5067229;28;20044;-57
2023/05/13 04:51:53;;;;;;;18.05;16.15;;;;;;;10.06;100.00;163195.00;5069829;28;20028;-57
2023/05/13 04:54:18;;;;;;;18.75;16.75;;;;;;;10.07;100.00;163197.69;5070169;28;20560;-58
2023/05/13 04:56:44;;;;;;;24.48;16.00;;;;;;;10.04;100.00;163189.59;5070825;28;20421;-58
2023/05/13 04:59:09;;;;;;;18.73;16.17;;;;;;;10.14;100.00;163216.59;5069675;28;20372;-57
2023/05/13 05:01:35;;;;;;;27.63;17.60;;;;;;;10.19;100.00;163227.38;5070032;28;20071;-57
2023/05/13 05:04:01;;;;;;;20.58;16.75;;;;;;;10.27;100.00;163248.97;5069161;28;20055;-58
2023/05/13 05:06:26;;;;;;;20.70;15.82;;;;;;;10.35;100.00;163270.56;5069642;28;20020;-58
2023/05/13 05:08:51;;;;;;;17.25;15.55;;;;;;;10.47;100.00;163303.00;5069897;28;20040;-57
2023/05/13 05:11:17;;;;;;;19.33;17.15;;;;;;;10.56;100.00;163324.59;5069976;28;20020;-57
2023/05/13 05:13:42;;;;;;;18.13;16.42;;;;;;;10.67;100.00;163354.31;5067059;28;20032;-57
2023/05/13 05:16:08;;;;;;;19.92;17.38;;;;;;;10.77;100.00;163381.28;5070696;28;20479;-58
2023/05/13 05:18:35;;;;;;;18.13;16.33;;;;;;;10.92;100.00;163419.06;5068448;28;20021;-58
2023/05/13 05:21:00;;;;;;;18.90;16.65;;;;;;;11.02;100.00;163446.09;5069966;28;20031;-58
2023/05/13 05:23:26;;;;;;;20.58;17.05;;;;;;;11.15;100.00;163478.47;5070348;28;20021;-58
2023/05/13 05:25:52;;;;;;;22.27;17.50;;;;;;;11.25;100.00;163505.50;5068438;28;20047;-58
2023/05/13 05:28:17;;;;;;;20.02;18.02;;;;;;;11.31;100.00;163520.38;5069866;28;20021;-58
2023/05/13 05:30:42;;;;;;;21.08;16.80;;;;;;;11.47;100.00;163562.22;5068381;28;20048;-57
2023/05/13 05:33:08;;;;;;;16.27;14.60;;;;;;;11.59;100.00;163596.00;5070481;28;20032;-58
2023/05/13 05:35:35;;;;;;;23.15;13.63;;;;;;;11.68;100.00;163618.94;5067652;28;20102;-58
2023/05/13 05:38:05;;;;;;;18.00;16.27;;;;;;;11.79;100.00;163645.97;5070484;28;20613;-58
2023/05/13 05:40:31;;;;;;;18.83;15.38;;;;;;;11.85;100.00;163662.19;5068288;28;20495;-58
2023/05/13 05:42:57;;;;;;;15.90;13.30;;;;;;;11.96;100.00;163691.88;5069535;28;20035;-58
2023/05/13 05:45:22;;;;;;;18.08;13.27;;;;;;;12.01;100.00;163705.47;5068318;28;20037;-58
2023/05/13 05:47:47;;;;;;;19.38;12.82;;;;;;;12.05;100.00;163714.94;5069714;28;20024;-58
2023/05/13 05:50:13;;;;;;;14.52;12.43;;;;;;;12.13;100.00;163735.16;5067194;28;20047;-58
2023/05/13 05:52:38;;;;;;;13.50;12.20;;;;;;;12.20;100.00;163754.09;5069963;28;20479;-58
2023/05/13 05:55:05;;;;;;;14.52;11.27;;;;;;;12.30;100.00;163779.75;5068403;28;20037;-58
2023/05/13 05:57:31;;;;;;;12.93;11.20;;;;;;;12.36;100.00;163797.34;5068747;28;20035;-58
2023/05/13 05:59:56;;;;;;;13.27;11.98;;;;;;;12.44;100.00;163816.25;5067108;28;20036;-58
2023/05/13 06:02:22;;;;;;;20.83;13.57;;;;;;;12.51;100.00;163835.16;5068820;28;20024;-59
2023/05/13 06:04:47;;;;;;;13.93;12.43;;;;;;;12.61;100.00;163862.22;5068391;28;20051;-58
2023/05/13 06:07:12;;;;;;;14.18;12.77;;;;;;;12.72;100.00;163889.22;5069816;28;20041;-58
2023/05/13 06:09:38;;;;;;;13.50;12.10;;;;;;;12.81;100.00;163914.88;5067990;28;20048;-58
2023/05/13 06:12:03;;;;;;;13.25;11.52;;;;;;;12.92;100.00;163941.94;5070294;28;20078;-58
2023/05/13 06:14:29;;;;;;;12.32;11.15;;;;;;;13.01;100.00;163966.28;5068357;28;20372;-58
2023/05/13 06:16:55;;;;;;;12.27;11.05;;;;;;;13.09;100.00;163986.53;5070283;28;20037;-58
2023/05/13 06:19:20;;;;;;;11.38;10.27;;;;;;;13.19;100.00;164013.59;5068140;28;20507;-58
2023/05/13 06:21:45;;;;;;;17.20;11.00;;;;;;;13.28;100.00;164037.94;5069850;28;20356;-59
2023/05/13 06:24:11;;;;;;;14.57;11.30;;;;;;;13.35;100.00;164055.50;5069105;28;20041;-58
2023/05/13 06:26:36;;;;;;;14.10;10.15;;;;;;;13.45;100.00;164082.59;5069307;28;20457;-58
2023/05/13 06:29:01;;;;;;;13.35;11.23;;;;;;;13.49;100.00;164093.41;5068117;28;20052;-57
2023/05/13 06:31:27;;;;;;;15.05;11.02;;;;;;;13.60;100.00;164121.78;5069782;28;20028;-57
2023/05/13 06:33:52;;;;;;;13.48;10.30;;;;;;;13.74;100.00;164156.94;5068188;28;20044;-57
2023/05/13 06:36:17;;;;;;;18.60;12.00;;;;;;;13.85;100.00;164186.72;5068418;28;20078;-57
2023/05/13 06:38:43;;;;;;;14.45;12.68;;;;;;;13.96;100.00;164215.13;5068193;28;20024;-57
2023/05/13 06:41:08;;;;;;;12.50;10.02;;;;;;;14.02;100.00;164231.34;5070116;28;20479;-57
2023/05/13 06:43:33;;;;;;;17.50;11.27;;;;;;;14.34;100.00;164315.22;5068358;28;20032;-57
2023/05/13 06:45:59;;;;;;;12.57;10.18;;;;;;;15.22;100.00;164546.72;5069797;28;20024;-57
2023/05/13 06:48:25;;;;;;;10.63;9.43;;;;;;;15.85;100.00;164711.88;5069204;28;20021;-57
2023/05/13 06:50:51;;;;;;;9.48;8.60;;;;;;;16.49;100.00;164879.81;5068201;28;20040;-57
2023/05/13 06:53:16;;;;;;;11.80;8.63;;;;;;;16.64;100.00;164917.78;5070256;28;20483;-57
2023/05/13 06:55:41;;;;;;;9.63;8.63;;;;;;;16.85;100.00;164971.97;5067539;28;20877;-56
2023/05/13 06:58:08;;;;;;;10.68;9.70;;;;;;;17.12;100.00;165045.16;5070000;28;20028;-57
2023/05/13 07:00:37;;;;;;;10.65;8.20;;;;;;;17.59;100.00;165167.16;5067631;28;20052;-56
2023/05/13 07:03:06;;;;;;;11.45;8.18;;;;;;;17.38;100.00;165112.94;5069470;28;20107;-57
2023/05/13 07:05:32;;;;;;;12.20;8.98;;;;;;;17.43;100.00;165126.47;5068198;28;20063;-57
2023/05/13 07:07:58;;;;;;;15.60;9.65;;;;;;;17.48;100.00;165137.28;5069405;28;20039;-57
2023/05/13 07:10:23;;;;;;;9.57;8.25;;;;;;;17.24;100.00;165074.94;5067113;28;20045;-57
2023/05/13 07:12:48;;;;;;;10.30;8.55;;;;;;;17.08;100.00;165032.97;5068848;28;20487;-57
2023/05/13 07:15:15;;;;;;;12.60;7.85;;;;;;;17.25;100.00;165077.66;5068113;28;20040;-57
2023/05/13 07:17:40;;;;;;;30.85;9.20;;;;;;;17.34;100.00;165102.06;5072748;28;20013;-57
2023/05/13 07:20:07;;;;;;;11.30;9.50;;;;;;;17.49;100.00;165140.03;5072007;28;20094;-58
2023/05/13 07:22:32;;;;;;;12.75;9.13;;;;;;;17.20;100.00;165064.13;5072265;28;20077;-57
2023/05/13 07:24:58;;;;;;;16.35;10.30;;;;;;;17.00;100.00;165012.66;5069464;28;20040;-57
2023/05/13 07:27:23;;;;;;;21.08;10.32;;;;;;;16.66;100.00;164923.16;5072708;28;20024;-57
2023/05/13 07:29:49;;;;;;;21.13;12.70;;;;;;;16.50;100.00;164881.19;5071771;28;20064;-57
2023/05/13 07:32:14;;;;;;;11.02;8.50;;;;;;;16.56;100.00;164896.09;5071827;28;20028;-58
2023/05/13 07:34:40;;;;;;;10.48;8.65;;;;;;;16.59;100.00;164905.59;5071220;28;20043;-58
2023/05/13 07:37:05;;;;;;;12.70;8.93;;;;;;;16.60;100.00;164906.91;5068148;28;20032;-58
2023/05/13 07:39:30;;;;;;;9.77;8.77;;;;;;;16.64;100.00;164917.78;5068952;28;20036;-57
2023/05/13 07:41:56;;;;;;;9.80;8.80;;;;;;;16.67;100.00;164925.88;5064692;28;20032;-58
2023/05/13 07:44:21;;;;;;;10.60;8.63;;;;;;;16.67;100.00;164925.88;5071110;28;20579;-57
2023/05/13 07:46:47;;;;;;;15.30;10.32;;;;;;;16.81;100.00;164962.47;5072129;28;20097;-58
2023/05/13 07:49:13;;;;;;;10.25;9.20;;;;;;;17.00;100.00;165012.66;5065925;28;20045;-57
2023/05/13 07:51:38;;;;;;;11.13;8.95;;;;;;;17.10;100.00;165039.72;5052574;28;20032;-57
2023/05/13 07:54:03;;;;;;;12.02;9.15;;;;;;;17.31;100.00;165092.59;5050826;28;20032;-57
2023/05/13 07:56:29;;;;;;;14.60;8.05;;;;;;;17.36;100.00;165107.50;5052134;28;20070;-57
2023/05/13 07:58:54;;;;;;;11.82;8.25;;;;;;;17.36;100.00;165106.13;5054310;28;20053;-58
2023/05/13 08:01:20;;;;;;;9.10;8.20;;;;;;;17.58;100.00;165164.44;5071871;28;20040;-57
2023/05/13 08:03:45;;;;;;;14.68;8.75;;;;;;;17.58;100.00;165165.75;5070992;28;20024;-58
2023/05/13 08:06:10;;;;;;;13.35;7.88;;;;;;;17.72;100.00;165202.38;5072747;28;20020;-57
2023/05/13 08:08:36;;;;;;;12.00;9.40;;;;;;;17.84;100.00;165232.16;5070317;28;20379;-57
2023/05/13 08:11:01;;;;;;;8.60;7.38;;;;;;;18.01;100.00;165277.00;5072471;28;20032;-57
2023/05/13 08:13:27;;;;;;;13.30;7.18;;;;;;;18.22;100.00;165333.94;5072358;28;20013;-57
2023/05/13 08:15:52;;;;;;;8.73;6.95;;;;;;;18.38;100.00;165374.63;5070114;28;20040;-57
2023/05/13 08:18:18;;;;;;;10.07;6.38;;;;;;;18.56;100.00;165422.06;5072288;28;20344;-58
2023/05/13 08:20:43;;;;;;;9.85;6.95;;;;;;;18.71;100.00;165462.75;5069457;28;20047;-57
2023/05/13 08:23:08;;;;;;;10.25;5.75;;;;;;;18.87;100.00;165503.47;5071433;28;20024;-57
2023/05/13 08:25:34;;;;;;;13.60;9.43;;;;;;;18.73;100.00;165466.81;5054907;28;20045;-57
2023/05/13 08:27:59;;;;;;;8.65;7.38;;;;;;;18.98;100.00;165533.31;5046991;28;20079;-57
2023/05/13 08:30:24;;;;;;;11.25;6.82;;;;;;;19.00;100.00;165538.75;5044976;28;20048;-58
2023/05/13 08:32:50;;;;;;;9.35;7.70;;;;;;;19.32;100.00;165621.50;5052242;28;20493;-57
2023/05/13 08:35:15;;;;;;;7.72;6.90;;;;;;;19.19;100.00;165587.56;5068765;28;20047;-57
2023/05/13 08:37:40;;;;;;;8.63;7.72;;;;;;;19.13;100.00;165572.69;5070238;28;20046;-57
2023/05/13 08:40:07;;;;;;;8.48;6.40;;;;;;;19.10;100.00;165563.19;5070223;28;20048;-58
2023/05/13 08:42:32;;;;;;;15.75;7.38;;;;;;;19.22;100.00;165595.72;5071277;28;20371;-58
2023/05/13 08:45:02;;;;;;;7.85;7.03;;;;;;;19.51;100.00;165671.69;5061158;28;20065;-58
2023/05/13 08:47:54;;;;;;;10.68;7.88;;;;;;;19.46;100.00;165658.16;5051791;28;20049;-58
2023/05/13 08:50:21;;;;;;;10.25;7.55;;;;;;;19.11;100.00;165565.84;5045018;28;20150;-58
2023/05/13 08:52:48;;;;;;;10.85;7.75;;;;;;;19.29;100.00;165614.72;5051217;28;20395;-58
2023/05/13 08:55:14;;;;;;;14.55;7.72;;;;;;;19.34;100.00;165628.28;5050340;28;20033;-58
2023/05/13 08:57:40;;;;;;;6.95;6.20;;;;;;;19.68;100.00;165715.13;5051318;28;20043;-58
2023/05/13 09:00:06;;;;;;;11.40;7.40;;;;;;;19.69;100.00;165717.84;5049535;28;20044;-58
2023/05/13 09:02:31;;;;;;;8.63;7.30;;;;;;;19.81;100.00;165750.41;5069940;28;20032;-58
2023/05/13 09:05:01;;;;;;;7.05;6.15;;;;;;;19.77;100.00;165739.56;5070079;28;20407;-58
2023/05/13 09:07:29;;;;;;;11.07;7.63;;;;;;;19.94;100.00;165785.72;5054333;28;20037;-58
2023/05/13 09:09:55;;;;;;;;;;;;;;;20.13;100.00;165835.94;5050451;28;20122;-58
2023/05/13 09:12:45;;;;;;;7.05;6.13;;;;;;;20.17;100.00;165845.44;5051107;28;20477;-58
2023/05/13 09:15:13;;;;;;;9.30;6.70;;;;;;;20.30;100.00;165879.38;5055417;28;20514;-58
2023/05/13 09:17:41;;;;;;;21.55;9.50;;;;;;;20.15;100.00;165840.00;5070608;28;20024;-58
2023/05/13 09:20:08;;;;;;;10.07;6.68;;;;;;;20.28;100.00;165875.34;5069470;28;20503;-58
2023/05/13 09:22:33;;;;;;;7.32;6.60;;;;;;;20.32;100.00;165883.44;5052071;28;20039;-58
2023/05/13 09:24:59;;;;;;;7.65;6.07;;;;;;;20.37;100.00;165897.00;5049416;28;20070;-58
2023/05/13 09:27:37;;;;;;;12.10;6.55;;;;;;;20.53;100.00;165940.44;5051005;28;20025;-58
2023/05/13 09:30:02;;;;;;;11.95;7.75;;;;;;;20.73;100.00;165993.47;5048921;28;20049;-57
2023/05/13 09:32:28;;;;;;;8.90;5.60;;;;;;;20.78;100.00;166005.69;5050654;28;20543;-58
2023/05/13 09:34:53;;;;;;;7.50;5.07;;;;;;;20.81;100.00;166013.84;5043857;28;20411;-58
2023/05/13 09:37:18;;;;;;;9.27;5.32;;;;;;;20.73;100.00;165993.47;5050347;28;20021;-58
2023/05/13 09:39:45;;;;;;;8.98;6.53;;;;;;;20.83;100.00;166019.25;5058476;28;20119;-58
2023/05/13 09:42:15;;;;;;;11.95;4.88;;;;;;;20.79;100.00;166008.41;5070601;28;20055;-58
2023/05/13 09:44:42;;;;;;;16.77;6.28;;;;;;;21.02;100.00;166068.16;5068358;28;20048;-58
2023/05/13 09:47:13;;;;;;;6.28;4.22;;;;;;;21.42;100.00;166172.72;5070657;28;20020;-58
2023/05/13 09:49:40;;;;;;;8.45;4.97;;;;;;;21.50;100.00;166195.78;5068975;28;20407;-58
2023/05/13 09:52:10;;;;;;;11.27;5.65;;;;;;;21.36;100.00;166157.75;5070180;28;20429;-59
2023/05/13 09:54:38;;;;;;;7.30;4.32;;;;;;;21.70;100.00;166247.47;5068842;28;20155;-58
2023/05/13 09:57:04;;;;;;;6.75;4.45;;;;;;;21.92;100.00;166304.53;5070439;28;20056;-58
2023/05/13 09:59:33;;;;;;;8.80;4.03;;;;;;;22.03;100.00;166334.38;5058430;28;20111;-58
2023/05/13 10:02:05;;;;;;;5.82;3.35;;;;;;;22.23;100.00;166386.06;5040336;28;20137;-58
2023/05/13 10:04:30;;;;;;;16.20;4.10;;;;;;;22.09;100.00;166350.69;5057082;28;20068;-58
2023/05/13 10:06:57;;;;;;;6.07;4.40;;;;;;;22.04;100.00;166337.13;5070333;28;20081;-58
2023/05/13 10:09:25;;;;;;;4.18;3.78;;;;;;;22.12;100.00;166358.84;5069199;28;20503;-59
2023/05/13 10:11:52;;;;;;;11.38;4.80;;;;;;;22.07;100.00;166345.28;5070604;28;20024;-58
2023/05/13 10:14:18;;;;;;;7.45;4.50;;;;;;;22.25;100.00;166392.84;5068685;28;20037;-58
2023/05/13 10:16:44;;;;;;;7.28;4.00;;;;;;;22.09;100.00;166349.34;5070048;28;20036;-58
2023/05/13 10:19:10;;;;;;;7.72;3.88;;;;;;;22.30;100.00;166405.06;5068998;28;20522;-58
2023/05/13 10:21:36;;;;;;;6.03;3.95;;;;;;;22.48;100.00;166454.00;5070136;28;20024;-59
2023/05/13 10:24:02;;;;;;;5.93;3.38;;;;;;;22.75;100.00;166524.66;5069253;28;20085;-58
2023/05/13 10:26:28;;;;;;;7.00;3.22;;;;;;;22.95;100.00;166576.34;5070138;28;20036;-58
2023/05/13 10:28:53;;;;;;;4.88;4.38;;;;;;;23.22;100.00;166647.06;5068290;28;20530;-58
2023/05/13 10:31:19;;;;;;;8.05;3.45;;;;;;;23.12;100.00;166622.53;5062953;28;20029;-58
2023/05/13 10:33:44;;;;;;;7.53;3.63;;;;;;;23.20;100.00;166641.59;5050569;28;20021;-58
2023/05/13 10:36:33;;;;;;;6.78;3.90;;;;;;;23.49;100.00;166717.78;5053010;28;20464;-58
2023/05/13 10:39:07;;;;;;;5.45;4.38;;;;;;;23.58;100.00;166743.59;5052603;28;20048;-58
2023/05/13 10:42:09;;;;;;;5.60;4.13;;;;;;;23.25;100.00;166655.22;5070306;28;20082;-58
2023/05/13 10:44:35;;;;;;;3.90;3.50;;;;;;;23.16;100.00;166630.69;5065353;28;20048;-58
2023/05/13 10:47:01;;;;;;;6.13;3.50;;;;;;;23.14;100.00;166627.97;5070538;28;20025;-58
2023/05/13 10:49:36;;;;;;;4.97;3.50;;;;;;;23.41;100.00;166698.75;5068554;28;20036;-58
2023/05/13 10:52:06;;;;;;;8.95;3.92;;;;;;;23.18;100.00;166637.53;5073209;28;20024;-58
2023/05/13 10:54:39;;;;;;;9.93;4.63;;;;;;;22.90;100.00;166564.09;5064365;28;20110;-58
2023/05/13 10:57:05;;;;;;;6.35;3.72;;;;;;;22.82;100.00;166543.69;5066696;28;20060;-58
2023/05/13 10:59:33;;;;;;;7.70;2.92;;;;;;;22.88;100.00;166557.31;5059587;28;20047;-58
2023/05/13 11:02:02;;;;;;;8.20;3.13;;;;;;;23.07;100.00;166607.59;5068038;28;20491;-57
2023/05/13 11:04:27;;;;;;;6.38;3.60;;;;;;;23.45;100.00;166708.25;5071692;28;20498;-58
2023/05/13 11:06:53;;;;;;;27.38;3.40;;;;;;;23.12;100.00;166622.53;5064562;28;20067;-58